Time;durP1;ratioP1;P1;durP2;ratioP2;P2;SDS_P1;SDS_P2;PMS_P1;PMS_P2;Temp;Humidity;BMP_temperature;BMP_pressure;BME280_temperature;BME280_humidity;BME280_pressure;Samples;Min_cycle;Max_cycle;Signal;HPM_P1;HPM_P2
2024/02/24 00:25:27;;;;;;;6.03;3.78;;;7.50;93.30;;;;;;6212632;23;20020;-63
2024/02/24 00:28:13;;;;;;;8.65;4.38;;;7.50;93.30;;;;;;6210884;23;20027;-62
2024/02/24 00:30:59;;;;;;;7.18;4.35;;;7.50;93.40;;;;;;6208795;23;20013;-63
2024/02/24 00:33:45;;;;;;;7.20;4.32;;;7.50;93.40;;;;;;6190862;23;20012;-62
2024/02/24 00:36:31;;;;;;;6.78;4.07;;;7.50;93.50;;;;;;6210523;23;20058;-62
2024/02/24 00:39:17;;;;;;;7.90;4.53;;;7.50;93.50;;;;;;6208811;23;20021;-63
2024/02/24 00:42:03;;;;;;;7.05;4.80;;;7.50;93.60;;;;;;6211601;23;20005;-62
2024/02/24 00:44:49;;;;;;;8.90;4.93;;;7.50;93.60;;;;;;6211990;23;20096;-63
2024/02/24 00:47:35;;;;;;;6.93;4.28;;;7.50;93.60;;;;;;6211528;23;20008;-63
2024/02/24 00:50:23;;;;;;;5.97;4.25;;;7.50;93.70;;;;;;6212207;23;20031;-63
2024/02/24 00:53:09;;;;;;;7.13;4.45;;;7.50;93.70;;;;;;6213446;23;20004;-62
2024/02/24 00:55:55;;;;;;;6.70;4.88;;;7.50;93.70;;;;;;6210388;23;20091;-63
2024/02/24 00:58:40;;;;;;;7.10;4.20;;;7.50;93.70;;;;;;6212365;23;20091;-63
2024/02/24 01:01:27;;;;;;;7.47;4.25;;;7.50;93.80;;;;;;6211846;23;20062;-63
2024/02/24 01:04:13;;;;;;;7.85;3.83;;;7.40;93.80;;;;;;6212663;23;20062;-62
2024/02/24 01:07:00;;;;;;;7.03;4.13;;;7.40;93.80;;;;;;6211359;23;20083;-62
2024/02/24 01:09:46;;;;;;;6.10;3.75;;;7.40;93.80;;;;;;6212889;23;20464;-62
2024/02/24 01:12:32;;;;;;;8.10;4.25;;;7.40;93.80;;;;;;6211430;23;20410;-63
2024/02/24 01:15:18;;;;;;;8.70;4.03;;;7.40;93.80;;;;;;6212381;23;20071;-62
2024/02/24 01:18:04;;;;;;;6.05;3.95;;;7.40;93.90;;;;;;6212945;23;20009;-62
2024/02/24 01:20:51;;;;;;;7.32;4.78;;;7.40;93.90;;;;;;6212125;23;20072;-63
2024/02/24 01:23:38;;;;;;;8.43;4.80;;;7.40;94.00;;;;;;6214518;22;20020;-63
2024/02/24 01:26:24;;;;;;;6.30;4.35;;;7.30;94.00;;;;;;6242219;23;20008;-62
2024/02/24 01:29:10;;;;;;;7.28;5.15;;;7.40;94.00;;;;;;6243289;23;20019;-62
2024/02/24 01:31:59;;;;;;;11.07;5.22;;;7.30;94.20;;;;;;6242363;23;20043;-63
2024/02/24 01:34:45;;;;;;;8.73;5.28;;;7.30;94.10;;;;;;6242299;23;20016;-63
2024/02/24 01:37:31;;;;;;;9.48;5.20;;;7.20;94.10;;;;;;6220634;23;20004;-63
2024/02/24 01:40:17;;;;;;;6.28;5.32;;;7.20;94.10;;;;;;6218161;23;20043;-62
2024/02/24 01:43:25;;;;;;;7.25;5.53;;;7.20;94.20;;;;;;6243801;23;20221;-62
2024/02/24 01:46:15;;;;;;;8.70;5.70;;;7.20;94.20;;;;;;6240691;23;20035;-63
2024/02/24 01:49:01;;;;;;;9.57;5.50;;;7.20;94.20;;;;;;6243432;23;20008;-62
2024/02/24 01:51:47;;;;;;;6.07;4.53;;;7.10;94.20;;;;;;6241557;23;20062;-62
2024/02/24 01:54:35;;;;;;;7.50;4.93;;;7.10;94.30;;;;;;6242494;23;20023;-62
2024/02/24 01:57:25;;;;;;;8.88;4.60;;;7.10;94.60;;;;;;6239219;23;20091;-62
2024/02/24 02:00:12;;;;;;;8.02;4.93;;;7.10;94.40;;;;;;6241772;23;20015;-62
2024/02/24 02:02:58;;;;;;;7.03;4.97;;;7.10;94.50;;;;;;6240882;23;20020;-62
2024/02/24 02:05:44;;;;;;;9.15;5.05;;;7.00;94.50;;;;;;6241633;23;20019;-62
2024/02/24 02:08:30;;;;;;;8.00;5.05;;;7.10;94.60;;;;;;6240966;23;20008;-62
2024/02/24 02:11:16;;;;;;;6.57;4.82;;;7.10;94.60;;;;;;6243838;23;20004;-62
2024/02/24 02:14:02;;;;;;;10.27;5.07;;;7.10;94.60;;;;;;6242091;23;20012;-62
2024/02/24 02:16:48;;;;;;;8.55;5.07;;;7.00;94.60;;;;;;6241897;23;20004;-62
2024/02/24 02:19:34;;;;;;;9.35;5.07;;;7.00;94.60;;;;;;6242387;23;20351;-62
2024/02/24 02:22:23;;;;;;;9.63;5.25;;;7.00;94.60;;;;;;6242651;23;20346;-62
2024/02/24 02:25:10;;;;;;;7.28;5.47;;;7.00;94.70;;;;;;6240888;23;20491;-61
2024/02/24 02:27:56;;;;;;;8.30;5.15;;;7.00;94.70;;;;;;6240929;23;20008;-63
2024/02/24 02:30:42;;;;;;;8.13;5.28;;;7.00;94.70;;;;;;6241310;23;20008;-62
2024/02/24 02:33:28;;;;;;;7.95;4.65;;;7.00;94.70;;;;;;6242571;23;20019;-61
2024/02/24 02:36:14;;;;;;;8.50;5.10;;;7.00;94.80;;;;;;6242507;23;20040;-62
2024/02/24 02:39:00;;;;;;;9.30;4.78;;;7.00;94.80;;;;;;6240065;23;20012;-68
2024/02/24 02:41:46;;;;;;;12.40;4.90;;;7.00;94.80;;;;;;6242948;23;20009;-67
2024/02/24 02:44:32;;;;;;;6.63;4.65;;;7.00;94.90;;;;;;6239986;23;20046;-67
2024/02/24 02:47:18;;;;;;;7.65;4.40;;;7.00;94.90;;;;;;6244031;23;20015;-65
2024/02/24 02:50:05;;;;;;;6.47;4.55;;;7.00;94.90;;;;;;6250227;23;20019;-65
2024/02/24 02:52:51;;;;;;;6.05;4.38;;;7.00;95.00;;;;;;6246234;23;20008;-67
2024/02/24 02:55:37;;;;;;;6.88;4.28;;;7.00;95.00;;;;;;6219525;23;20015;-67
2024/02/24 02:58:23;;;;;;;5.93;3.50;;;7.00;95.00;;;;;;6240739;23;20008;-68
2024/02/24 03:01:09;;;;;;;8.15;4.65;;;7.00;95.10;;;;;;6239092;23;20012;-67
2024/02/24 03:03:55;;;;;;;7.45;4.53;;;7.00;95.10;;;;;;6242042;23;20090;-67
2024/02/24 03:06:43;;;;;;;8.30;3.90;;;7.00;95.10;;;;;;6242553;23;20014;-66
2024/02/24 03:09:29;;;;;;;5.70;3.97;;;7.00;95.10;;;;;;6241401;23;20087;-66
2024/02/24 03:12:15;;;;;;;9.60;4.05;;;7.00;95.10;;;;;;6240564;23;20012;-67
2024/02/24 03:15:02;;;;;;;7.55;4.40;;;7.00;95.20;;;;;;6241333;23;20083;-68
2024/02/24 03:17:48;;;;;;;7.50;4.18;;;7.00;95.20;;;;;;6241882;23;20008;-67
2024/02/24 03:20:34;;;;;;;6.60;4.40;;;7.00;95.20;;;;;;6242219;23;20407;-68
2024/02/24 03:23:20;;;;;;;6.93;3.97;;;7.00;95.20;;;;;;6239449;23;20016;-68
2024/02/24 03:26:06;;;;;;;8.93;4.30;;;7.00;95.20;;;;;;6242138;23;20395;-68
2024/02/24 03:28:52;;;;;;;6.53;3.78;;;7.00;95.20;;;;;;6242077;23;20016;-68
2024/02/24 03:31:38;;;;;;;7.50;3.90;;;7.00;95.30;;;;;;6219249;23;20015;-68
2024/02/24 03:34:23;;;;;;;6.63;4.05;;;7.00;95.30;;;;;;6241385;23;20016;-68
2024/02/24 03:37:09;;;;;;;8.27;3.78;;;7.00;95.30;;;;;;6221070;23;20348;-68
2024/02/24 03:39:55;;;;;;;7.22;4.28;;;7.10;95.30;;;;;;6238285;23;20019;-68
2024/02/24 03:42:41;;;;;;;11.38;3.88;;;7.00;95.30;;;;;;6240658;23;20004;-67
2024/02/24 03:45:27;;;;;;;7.07;4.18;;;7.00;95.30;;;;;;6220280;23;20016;-67
2024/02/24 03:48:13;;;;;;;5.43;3.33;;;7.00;95.30;;;;;;6241016;23;20004;-67
2024/02/24 03:51:00;;;;;;;5.78;3.50;;;7.00;95.30;;;;;;6240519;23;20502;-68
2024/02/24 03:53:46;;;;;;;5.15;3.63;;;7.00;95.30;;;;;;6240948;23;20004;-68
2024/02/24 03:56:32;;;;;;;5.85;4.22;;;7.00;95.30;;;;;;6241283;23;20008;-68
2024/02/24 03:59:18;;;;;;;7.05;3.70;;;7.00;95.30;;;;;;6241317;23;20504;-67
2024/02/24 04:02:04;;;;;;;6.72;3.85;;;7.00;95.30;;;;;;6241607;23;20016;-67
2024/02/24 04:04:50;;;;;;;5.93;3.45;;;7.00;95.30;;;;;;6242043;23;20514;-67
2024/02/24 04:07:36;;;;;;;6.40;3.55;;;7.00;95.30;;;;;;6241154;23;20079;-70
2024/02/24 04:10:22;;;;;;;6.45;3.85;;;6.90;95.30;;;;;;6240627;23;20318;-68
2024/02/24 04:13:08;;;;;;;5.72;3.38;;;6.90;95.30;;;;;;6240993;23;20047;-68
2024/02/24 04:15:54;;;;;;;5.75;3.42;;;6.90;95.30;;;;;;6241214;23;20051;-68
2024/02/24 04:18:40;;;;;;;6.88;3.47;;;6.80;95.40;;;;;;6241916;23;20016;-68
2024/02/24 04:21:26;;;;;;;5.38;4.00;;;6.80;95.40;;;;;;6242812;23;20067;-67
2024/02/24 04:24:12;;;;;;;4.90;3.55;;;6.80;95.40;;;;;;6242268;23;20523;-67
2024/02/24 04:26:58;;;;;;;5.70;3.58;;;6.80;95.40;;;;;;6241450;23;20063;-68
2024/02/24 04:29:44;;;;;;;5.80;3.70;;;6.80;95.40;;;;;;6243778;23;20016;-68
2024/02/24 04:32:30;;;;;;;6.53;3.30;;;6.80;95.50;;;;;;6244184;23;20004;-68
2024/02/24 04:35:16;;;;;;;4.65;3.20;;;6.80;95.40;;;;;;6243333;23;20062;-66
2024/02/24 04:38:06;;;;;;;7.28;3.50;;;6.70;95.40;;;;;;6244352;23;20070;-68
2024/02/24 04:40:52;;;;;;;5.57;3.22;;;6.70;95.50;;;;;;6243942;23;20095;-67
2024/02/24 04:43:38;;;;;;;6.30;3.40;;;6.60;95.50;;;;;;6242862;23;20130;-67
2024/02/24 04:46:24;;;;;;;6.30;3.70;;;6.60;95.50;;;;;;6239960;23;20036;-66
2024/02/24 04:49:10;;;;;;;4.57;2.78;;;6.60;95.60;;;;;;6243970;23;20008;-67
2024/02/24 04:51:56;;;;;;;7.32;4.00;;;6.60;95.60;;;;;;6243072;23;20062;-67
2024/02/24 04:54:41;;;;;;;5.93;4.13;;;6.50;95.60;;;;;;6244368;23;20012;-67
2024/02/24 04:57:27;;;;;;;7.65;4.22;;;6.60;95.70;;;;;;6242920;23;20008;-67
2024/02/24 05:00:14;;;;;;;5.75;3.88;;;6.50;95.70;;;;;;6241836;23;20023;-68
2024/02/24 05:02:59;;;;;;;5.85;4.15;;;6.50;95.70;;;;;;6243063;23;20078;-71
2024/02/24 05:05:45;;;;;;;6.38;3.65;;;6.60;95.70;;;;;;6242591;23;20187;-71
2024/02/24 05:08:33;;;;;;;6.10;3.60;;;6.50;95.80;;;;;;6243184;23;20015;-72
2024/02/24 05:11:19;;;;;;;8.68;3.95;;;6.40;95.80;;;;;;6242602;23;20015;-72
2024/02/24 05:14:05;;;;;;;7.20;4.18;;;6.50;95.80;;;;;;6243606;23;20012;-72
2024/02/24 05:16:50;;;;;;;5.82;3.28;;;6.40;95.80;;;;;;6242753;23;20367;-72
2024/02/24 05:19:36;;;;;;;9.30;3.92;;;6.40;95.90;;;;;;6244063;23;20440;-71
2024/02/24 05:22:22;;;;;;;5.63;3.38;;;6.40;95.90;;;;;;6243181;23;20052;-71
2024/02/24 05:25:09;;;;;;;4.60;3.42;;;6.40;95.90;;;;;;6241612;23;20020;-70
2024/02/24 05:27:55;;;;;;;6.00;3.85;;;6.40;95.90;;;;;;6217349;23;20078;-70
2024/02/24 05:30:41;;;;;;;7.25;3.45;;;6.40;96.00;;;;;;6242932;23;20008;-70
2024/02/24 05:33:27;;;;;;;6.72;4.10;;;6.30;96.00;;;;;;6241862;23;20598;-71
2024/02/24 05:36:14;;;;;;;6.97;4.65;;;6.30;96.00;;;;;;6243529;23;20016;-70
2024/02/24 05:38:59;;;;;;;5.53;3.75;;;6.40;96.10;;;;;;6241941;23;20015;-70
2024/02/24 05:41:45;;;;;;;5.13;3.83;;;6.30;96.10;;;;;;6244191;23;20008;-70
2024/02/24 05:44:31;;;;;;;5.22;3.30;;;6.30;96.10;;;;;;6242313;23;20016;-70
2024/02/24 05:47:17;;;;;;;5.70;3.92;;;6.30;96.10;;;;;;6243953;23;20004;-70
2024/02/24 05:50:04;;;;;;;6.70;4.10;;;6.30;96.10;;;;;;6243165;23;20012;-71
2024/02/24 05:52:50;;;;;;;5.97;3.88;;;6.30;96.20;;;;;;6242405;23;20004;-70
2024/02/24 05:55:35;;;;;;;6.50;3.78;;;6.20;96.10;;;;;;6240593;23;20015;-70
2024/02/24 05:58:21;;;;;;;7.55;4.38;;;6.20;96.20;;;;;;6242578;23;20011;-66
2024/02/24 06:01:07;;;;;;;5.88;3.90;;;6.20;96.20;;;;;;6243465;23;20008;-66
2024/02/24 06:03:54;;;;;;;6.25;3.45;;;6.20;96.20;;;;;;6250279;23;20023;-67
2024/02/24 06:06:40;;;;;;;5.97;3.50;;;6.20;96.30;;;;;;6245602;23;20005;-66
2024/02/24 06:09:26;;;;;;;6.60;3.97;;;6.10;96.30;;;;;;6243001;23;20012;-67
2024/02/24 06:12:12;;;;;;;6.32;3.78;;;6.10;96.30;;;;;;6238834;23;20008;-67
2024/02/24 06:14:58;;;;;;;7.53;4.70;;;6.10;96.40;;;;;;6243165;23;20012;-66
2024/02/24 06:17:44;;;;;;;5.57;3.78;;;6.10;96.40;;;;;;6219795;23;20051;-66
2024/02/24 06:20:30;;;;;;;6.95;4.28;;;6.10;96.50;;;;;;6243232;23;20043;-66
2024/02/24 06:23:16;;;;;;;7.97;4.57;;;6.10;96.50;;;;;;6242446;23;20066;-66
2024/02/24 06:26:02;;;;;;;7.35;4.43;;;6.10;96.50;;;;;;6242743;23;20089;-66
2024/02/24 06:28:48;;;;;;;7.55;4.45;;;6.00;96.50;;;;;;6241256;23;20012;-66
2024/02/24 06:31:34;;;;;;;6.63;4.25;;;6.00;96.60;;;;;;6242359;23;20043;-66
2024/02/24 06:34:19;;;;;;;6.00;4.07;;;6.10;96.60;;;;;;6242598;23;20046;-65
2024/02/24 06:37:05;;;;;;;6.53;4.68;;;6.00;96.60;;;;;;6242331;23;20012;-66
2024/02/24 06:39:51;;;;;;;7.90;4.00;;;6.10;96.70;;;;;;6241746;23;20000;-66
2024/02/24 06:42:37;;;;;;;8.00;4.03;;;6.00;96.70;;;;;;6241857;23;20387;-66
2024/02/24 06:45:23;;;;;;;8.73;3.50;;;6.10;96.80;;;;;;6240226;23;20020;-67
2024/02/24 06:48:09;;;;;;;7.55;3.97;;;6.10;96.80;;;;;;6241054;23;20012;-67
2024/02/24 06:50:55;;;;;;;6.53;4.07;;;6.10;96.90;;;;;;6241588;23;20063;-67
2024/02/24 06:53:42;;;;;;;5.18;4.10;;;6.00;96.90;;;;;;6242193;23;20017;-68
2024/02/24 06:56:28;;;;;;;6.15;4.40;;;6.10;96.90;;;;;;6241939;23;20458;-67
2024/02/24 06:59:14;;;;;;;5.88;4.05;;;6.10;96.90;;;;;;6239242;23;20016;-67
2024/02/24 07:02:00;;;;;;;6.00;4.25;;;6.10;97.00;;;;;;6240414;23;20018;-67
2024/02/24 07:04:46;;;;;;;6.80;3.67;;;6.20;97.00;;;;;;6240670;23;20020;-68
2024/02/24 07:07:32;;;;;;;4.85;3.63;;;6.20;97.00;;;;;;6242205;23;20012;-67
2024/02/24 07:10:18;;;;;;;12.95;5.28;;;6.20;97.10;;;;;;6240285;23;20012;-68
2024/02/24 07:13:04;;;;;;;5.45;3.90;;;6.20;97.10;;;;;;6240904;23;20100;-68
2024/02/24 07:15:50;;;;;;;9.50;4.72;;;6.20;97.10;;;;;;6237660;23;20034;-67
2024/02/24 07:18:37;;;;;;;6.03;4.03;;;6.20;97.20;;;;;;6241556;23;20008;-65
2024/02/24 07:21:23;;;;;;;7.05;4.43;;;6.30;97.30;;;;;;6239637;23;20068;-67
2024/02/24 07:24:09;;;;;;;7.78;4.90;;;6.30;97.30;;;;;;6242565;23;20024;-67
2024/02/24 07:26:55;;;;;;;7.07;4.82;;;6.40;97.30;;;;;;6239907;23;20707;-67
2024/02/24 07:29:41;;;;;;;5.68;3.90;;;6.40;97.30;;;;;;6242172;23;20012;-67
2024/02/24 07:32:27;;;;;;;5.25;3.65;;;6.40;97.40;;;;;;6240045;23;20037;-67
2024/02/24 07:35:13;;;;;;;5.05;3.72;;;6.40;97.40;;;;;;6242246;23;20107;-66
2024/02/24 07:37:59;;;;;;;5.80;3.53;;;6.50;97.40;;;;;;6240541;23;20004;-67
2024/02/24 07:40:45;;;;;;;6.00;3.88;;;6.50;97.40;;;;;;6240019;23;20091;-67
2024/02/24 07:43:31;;;;;;;5.90;4.72;;;6.60;97.40;;;;;;6239297;23;20094;-67
2024/02/24 07:46:30;;;;;;;7.47;3.95;;;6.60;97.40;;;;;;6241500;23;20008;-66
2024/02/24 07:49:16;;;;;;;5.53;3.58;;;6.70;97.40;;;;;;6242335;23;20467;-66
2024/02/24 07:52:03;;;;;;;5.07;3.47;;;6.70;97.40;;;;;;6241470;23;20106;-65
2024/02/24 07:54:49;;;;;;;7.03;3.92;;;6.70;97.40;;;;;;6241110;23;20012;-66
2024/02/24 07:57:35;;;;;;;6.13;3.53;;;6.80;97.40;;;;;;6241087;23;20000;-66
2024/02/24 08:00:22;;;;;;;6.35;4.60;;;6.80;97.40;;;;;;6240460;23;20012;-66
2024/02/24 08:03:08;;;;;;;6.43;3.60;;;6.90;97.40;;;;;;6240268;23;20078;-66
2024/02/24 08:05:54;;;;;;;5.68;3.38;;;6.90;97.40;;;;;;6241799;23;20023;-66
2024/02/24 08:08:40;;;;;;;4.55;3.13;;;7.00;97.50;;;;;;6241222;23;20103;-66
2024/02/24 08:11:29;;;;;;;6.40;3.85;;;7.10;97.50;;;;;;6240931;23;20008;-66
2024/02/24 08:14:15;;;;;;;5.97;3.22;;;7.10;97.40;;;;;;6239309;23;20123;-67
2024/02/24 08:17:01;;;;;;;7.28;4.10;;;7.10;97.40;;;;;;6237715;23;20046;-64
2024/02/24 08:19:47;;;;;;;6.75;3.60;;;7.20;97.40;;;;;;6235380;23;20018;-67
2024/02/24 08:22:34;;;;;;;6.93;3.90;;;7.20;97.50;;;;;;6239361;23;20303;-65
2024/02/24 08:25:20;;;;;;;6.63;4.53;;;7.20;97.50;;;;;;6240221;23;20027;-65
2024/02/24 08:28:06;;;;;;;5.43;4.05;;;7.30;97.50;;;;;;6241983;23;20012;-66
2024/02/24 08:30:51;;;;;;;5.47;3.60;;;7.40;97.50;;;;;;6239157;23;20046;-65
2024/02/24 08:33:41;;;;;;;5.88;3.50;;;7.40;97.40;;;;;;6242013;23;20027;-65
2024/02/24 08:36:27;;;;;;;5.22;3.50;;;7.50;97.50;;;;;;6239891;23;20008;-65
2024/02/24 08:39:13;;;;;;;6.10;3.50;;;7.50;97.40;;;;;;6217887;23;20027;-65
2024/02/24 08:42:01;;;;;;;6.38;3.20;;;7.60;97.40;;;;;;6237846;23;20005;-65
2024/02/24 08:44:47;;;;;;;5.93;3.38;;;7.60;97.40;;;;;;6240291;23;20024;-66
2024/02/24 08:47:33;;;;;;;5.20;3.13;;;7.70;97.30;;;;;;6240537;23;20018;-65
2024/02/24 08:50:19;;;;;;;8.77;3.22;;;7.70;97.30;;;;;;6240480;23;20015;-64
2024/02/24 08:53:05;;;;;;;4.13;2.65;;;7.80;97.30;;;;;;6238173;23;20008;-65
2024/02/24 08:55:51;;;;;;;4.45;2.45;;;7.90;97.20;;;;;;6240878;23;20109;-66
2024/02/24 08:58:37;;;;;;;6.97;3.08;;;8.00;97.20;;;;;;6240810;23;20026;-65
2024/02/24 09:01:23;;;;;;;6.40;2.65;;;8.00;97.10;;;;;;6240897;23;20322;-65
2024/02/24 09:04:10;;;;;;;5.10;2.72;;;8.10;97.10;;;;;;6240631;23;20056;-66
2024/02/24 09:06:56;;;;;;;3.80;2.50;;;8.20;97.10;;;;;;6239839;23;20012;-66
2024/02/24 09:09:41;;;;;;;5.20;3.00;;;8.20;97.00;;;;;;6240266;23;20008;-63
2024/02/24 09:12:27;;;;;;;7.18;3.28;;;8.30;97.00;;;;;;6242177;23;20019;-65
2024/02/24 09:15:13;;;;;;;8.85;2.97;;;8.40;97.00;;;;;;6244143;23;20062;-65
2024/02/24 09:18:00;;;;;;;5.25;3.47;;;8.40;97.00;;;;;;6246465;23;20314;-64
2024/02/24 09:20:46;;;;;;;6.05;3.58;;;8.50;97.00;;;;;;6241888;23;20015;-64
2024/02/24 09:23:32;;;;;;;5.43;2.83;;;8.60;97.00;;;;;;6243929;23;20106;-65
2024/02/24 09:26:18;;;;;;;3.88;2.45;;;8.60;97.10;;;;;;6241592;23;20087;-64
2024/02/24 09:29:04;;;;;;;9.18;3.38;;;8.70;97.00;;;;;;6240650;23;20016;-65
2024/02/24 09:31:49;;;;;;;6.57;2.90;;;8.80;97.10;;;;;;6242387;23;20101;-65
2024/02/24 09:34:35;;;;;;;5.20;2.50;;;8.90;97.00;;;;;;6242932;23;20023;-65
2024/02/24 09:37:21;;;;;;;5.18;3.35;;;8.90;96.90;;;;;;6243574;23;20073;-65
2024/02/24 09:40:08;;;;;;;6.35;2.70;;;9.00;97.00;;;;;;6242856;23;20000;-64
2024/02/24 09:43:05;;;;;;;4.65;2.60;;;9.10;96.80;;;;;;6242330;23;20035;-63
2024/02/24 09:45:51;;;;;;;4.25;2.65;;;9.20;96.60;;;;;;6238687;23;20043;-64
2024/02/24 09:48:38;;;;;;;4.40;1.98;;;9.20;96.50;;;;;;6241219;23;20008;-65
2024/02/24 09:51:24;;;;;;;3.25;2.20;;;9.30;96.30;;;;;;6241504;23;20099;-66
2024/02/24 09:54:10;;;;;;;4.55;2.50;;;9.30;96.30;;;;;;6241153;23;20008;-66
2024/02/24 09:56:57;;;;;;;6.13;2.78;;;9.40;96.20;;;;;;6242292;23;20008;-65
2024/02/24 09:59:45;;;;;;;3.50;2.00;;;9.50;96.10;;;;;;6241220;23;20035;-66
2024/02/24 10:02:31;;;;;;;3.08;2.13;;;9.50;95.80;;;;;;6240045;23;20081;-66
2024/02/24 10:05:18;;;;;;;7.35;2.15;;;9.60;95.70;;;;;;6241308;23;20012;-66
2024/02/24 10:08:04;;;;;;;3.10;1.83;;;9.60;95.60;;;;;;6239041;23;20015;-65
2024/02/24 10:10:51;;;;;;;4.25;1.67;;;9.60;95.50;;;;;;6240464;23;20008;-66
2024/02/24 10:13:37;;;;;;;5.38;2.20;;;9.70;95.50;;;;;;6241913;23;20515;-65
2024/02/24 10:16:23;;;;;;;3.88;2.05;;;9.70;95.50;;;;;;6242407;23;20008;-65
2024/02/24 10:19:09;;;;;;;5.10;2.30;;;9.80;95.50;;;;;;6241765;23;20017;-66
2024/02/24 10:21:55;;;;;;;3.50;2.30;;;9.80;95.50;;;;;;6240556;23;20182;-62
2024/02/24 10:24:41;;;;;;;10.98;3.25;;;9.90;95.40;;;;;;6237273;23;20026;-63
2024/02/24 10:27:28;;;;;;;3.05;2.15;;;10.00;95.40;;;;;;6240517;23;20023;-63
2024/02/24 10:30:14;;;;;;;3.50;2.30;;;10.10;95.30;;;;;;6241691;23;20192;-62
2024/02/24 10:33:01;;;;;;;4.75;2.33;;;10.10;95.10;;;;;;6240611;23;20035;-64
2024/02/24 10:35:49;;;;;;;4.32;2.60;;;10.20;95.00;;;;;;6240708;23;20008;-62
2024/02/24 10:38:40;;;;;;;6.15;2.78;;;10.30;95.10;;;;;;6241559;23;20066;-62
2024/02/24 10:41:27;;;;;;;3.05;2.20;;;10.40;95.00;;;;;;6237085;23;20016;-62
2024/02/24 10:44:13;;;;;;;3.97;2.13;;;10.40;94.90;;;;;;6241620;23;20020;-64
2024/02/24 10:47:01;;;;;;;4.18;2.25;;;10.50;94.70;;;;;;6242526;23;20004;-63
2024/02/24 10:49:47;;;;;;;2.63;1.63;;;10.60;94.70;;;;;;6239572;23;20497;-63
2024/02/24 10:52:33;;;;;;;4.70;2.30;;;10.60;94.50;;;;;;6240675;23;20035;-63
2024/02/24 10:55:22;;;;;;;7.28;2.50;;;10.70;94.50;;;;;;6239114;23;20008;-62
2024/02/24 10:58:09;;;;;;;4.20;1.92;;;10.70;94.40;;;;;;6239609;23;20071;-62
2024/02/24 11:00:55;;;;;;;4.43;1.90;;;10.80;94.40;;;;;;6239461;23;20022;-63
2024/02/24 11:03:41;;;;;;;3.03;2.00;;;10.80;94.20;;;;;;6240105;23;20020;-62
2024/02/24 11:06:49;;;;;;;4.32;1.95;;;10.90;94.10;;;;;;6240453;23;20012;-63
2024/02/24 11:09:37;;;;;;;4.05;1.90;;;11.00;94.00;;;;;;6240885;23;20008;-62
2024/02/24 11:12:27;;;;;;;6.75;2.72;;;11.00;93.80;;;;;;6241364;23;20015;-63
2024/02/24 11:15:20;;;;;;;4.13;2.35;;;11.20;93.80;;;;;;6241757;23;20012;-63
2024/02/24 11:18:06;;;;;;;4.20;2.00;;;11.30;93.70;;;;;;6240848;23;20012;-63
2024/02/24 11:20:53;;;;;;;4.13;2.20;;;11.40;93.70;;;;;;6240089;23;20008;-63
2024/02/24 11:23:43;;;;;;;8.63;3.22;;;11.50;93.50;;;;;;6239179;23;20020;-63
2024/02/24 11:26:30;;;;;;;2.72;1.88;;;11.70;93.50;;;;;;6240302;23;20341;-63
2024/02/24 11:29:19;;;;;;;4.78;1.83;;;11.80;93.40;;;;;;6219087;23;20443;-62
2024/02/24 11:32:12;;;;;;;4.03;2.35;;;11.80;93.20;;;;;;6241573;23;20016;-62
2024/02/24 11:34:58;;;;;;;4.75;2.05;;;11.90;93.10;;;;;;6241039;23;20004;-60
2024/02/24 11:37:45;;;;;;;3.70;2.30;;;12.00;93.10;;;;;;6240919;23;20019;-61
2024/02/24 11:40:31;;;;;;;4.97;2.00;;;12.10;93.00;;;;;;6237301;23;20011;-59
2024/02/24 11:43:18;;;;;;;4.72;1.95;;;12.10;92.90;;;;;;6239554;23;20054;-61
2024/02/24 11:46:04;;;;;;;4.00;2.00;;;12.20;92.70;;;;;;6240279;23;20020;-61
2024/02/24 11:48:53;;;;;;;5.35;1.83;;;12.30;92.40;;;;;;6240006;23;20425;-61
2024/02/24 11:51:39;;;;;;;4.63;1.88;;;12.30;92.20;;;;;;6240588;23;20449;-61
2024/02/24 11:54:26;;;;;;;5.00;2.05;;;12.30;92.00;;;;;;6240128;23;20062;-60
2024/02/24 11:57:12;;;;;;;4.68;1.90;;;12.30;91.90;;;;;;6240682;23;20012;-62
2024/02/24 11:59:58;;;;;;;4.70;2.30;;;12.30;91.70;;;;;;6238341;23;20449;-63
2024/02/24 12:02:44;;;;;;;3.72;2.13;;;12.40;91.50;;;;;;6218790;23;20495;-64
2024/02/24 12:05:30;;;;;;;3.75;2.50;;;12.50;91.50;;;;;;6239949;23;20012;-63
2024/02/24 12:08:20;;;;;;;4.93;2.60;;;12.50;91.40;;;;;;6241575;23;20008;-61
2024/02/24 12:11:06;;;;;;;4.22;2.35;;;12.70;91.30;;;;;;6240020;23;20425;-62
2024/02/24 12:13:52;;;;;;;7.07;3.30;;;12.80;91.30;;;;;;6240760;23;20337;-62
2024/02/24 12:16:40;;;;;;;5.22;2.38;;;12.80;91.10;;;;;;6241252;23;20011;-62
2024/02/24 12:19:27;;;;;;;6.05;2.63;;;12.90;91.00;;;;;;6240664;23;20087;-62
2024/02/24 12:22:13;;;;;;;3.60;2.00;;;12.90;90.90;;;;;;6239859;23;20040;-61
2024/02/24 12:25:13;;;;;;;3.58;2.03;;;12.90;90.80;;;;;;6240595;23;20020;-62
2024/02/24 12:28:03;;;;;;;3.53;2.30;;;12.90;90.60;;;;;;6239193;23;20015;-62
2024/02/24 12:30:51;;;;;;;3.67;2.10;;;12.90;90.60;;;;;;6241210;23;20009;-63
2024/02/24 12:33:41;;;;;;;5.00;2.20;;;12.80;90.50;;;;;;6242062;23;20019;-63
2024/02/24 12:36:31;;;;;;;4.28;2.20;;;12.80;90.60;;;;;;6241179;23;20062;-62
2024/02/24 12:39:17;;;;;;;4.85;1.83;;;12.70;90.50;;;;;;6239659;23;20506;-62
2024/02/24 12:42:03;;;;;;;3.00;1.60;;;12.70;90.60;;;;;;6239791;23;20095;-63
2024/02/24 12:44:49;;;;;;;3.20;1.88;;;12.70;90.50;;;;;;6241578;23;20329;-63
2024/02/24 12:47:36;;;;;;;5.07;2.80;;;12.70;90.50;;;;;;6241469;23;20429;-62
2024/02/24 12:50:26;;;;;;;3.50;1.98;;;12.70;90.60;;;;;;6241639;23;20034;-62
2024/02/24 12:53:11;;;;;;;4.15;1.80;;;12.70;90.60;;;;;;6219760;23;20009;-62
2024/02/24 12:55:59;;;;;;;5.15;1.90;;;12.60;90.50;;;;;;6242951;23;20078;-62
2024/02/24 12:58:45;;;;;;;4.25;1.85;;;12.60;90.60;;;;;;6239900;23;20012;-62
2024/02/24 13:01:31;;;;;;;2.60;1.65;;;12.60;90.60;;;;;;6243311;23;20008;-62
2024/02/24 13:04:17;;;;;;;3.30;1.90;;;12.60;90.60;;;;;;6240116;23;20027;-62
2024/02/24 13:07:03;;;;;;;3.70;2.03;;;12.60;90.50;;;;;;6217402;23;20016;-64
2024/02/24 13:09:49;;;;;;;4.65;2.42;;;12.60;90.60;;;;;;6243014;23;20008;-64
2024/02/24 13:12:35;;;;;;;3.85;2.00;;;12.70;90.60;;;;;;6242951;23;20413;-63
2024/02/24 13:15:23;;;;;;;3.80;2.17;;;12.60;90.50;;;;;;6239639;23;20364;-64
2024/02/24 13:18:09;;;;;;;5.05;2.15;;;12.70;90.50;;;;;;6241551;23;20062;-64
2024/02/24 13:20:55;;;;;;;4.28;2.10;;;12.70;90.50;;;;;;6243583;23;20008;-63
2024/02/24 13:23:41;;;;;;;6.95;2.08;;;12.60;90.40;;;;;;6242335;22;20138;-64
2024/02/24 13:26:28;;;;;;;5.07;2.17;;;12.70;90.40;;;;;;6242133;23;20020;-62
2024/02/24 13:29:13;;;;;;;2.97;1.70;;;12.70;90.40;;;;;;6241037;23;20023;-63
2024/02/24 13:31:59;;;;;;;3.03;1.60;;;12.70;90.40;;;;;;6241778;23;20008;-63
2024/02/24 13:34:45;;;;;;;6.15;2.03;;;12.60;90.40;;;;;;6241754;23;20015;-62
2024/02/24 13:37:31;;;;;;;5.55;1.92;;;12.70;90.50;;;;;;6242972;23;20012;-63
2024/02/24 13:40:21;;;;;;;5.00;1.60;;;12.70;90.50;;;;;;6241477;23;20026;-63
2024/02/24 13:43:07;;;;;;;6.05;2.47;;;12.80;90.50;;;;;;6241838;23;20010;-62
2024/02/24 13:45:52;;;;;;;3.50;1.73;;;12.80;90.50;;;;;;6243029;23;20153;-69
2024/02/24 13:48:38;;;;;;;3.65;2.25;;;12.80;90.50;;;;;;6242597;23;20007;-68
2024/02/24 13:51:25;;;;;;;2.90;1.90;;;12.80;90.50;;;;;;6242641;23;20016;-68
2024/02/24 13:54:11;;;;;;;3.28;2.03;;;12.80;90.50;;;;;;6240665;23;20027;-67
2024/02/24 13:56:57;;;;;;;6.00;2.50;;;12.80;90.40;;;;;;6241037;23;20008;-68
2024/02/24 13:59:43;;;;;;;3.53;1.90;;;12.80;90.40;;;;;;6241161;23;20034;-66
2024/02/24 14:02:30;;;;;;;4.22;1.88;;;12.80;90.40;;;;;;6242499;23;20012;-68
2024/02/24 14:05:16;;;;;;;3.10;1.67;;;12.80;90.30;;;;;;6241813;23;20026;-67
2024/02/24 14:08:03;;;;;;;2.83;1.73;;;12.80;90.30;;;;;;6241468;23;20530;-68
2024/02/24 14:10:49;;;;;;;2.53;1.60;;;12.80;90.30;;;;;;6240675;23;20436;-69
2024/02/24 14:13:35;;;;;;;4.20;1.70;;;12.90;90.30;;;;;;6241466;23;20043;-68
2024/02/24 14:16:21;;;;;;;5.32;2.00;;;12.90;90.20;;;;;;6241229;23;20024;-66
2024/02/24 14:19:07;;;;;;;2.70;1.80;;;12.80;90.10;;;;;;6242843;23;20444;-68
2024/02/24 14:21:53;;;;;;;6.00;2.67;;;12.90;90.10;;;;;;6239262;23;20513;-67
2024/02/24 14:24:39;;;;;;;4.95;2.75;;;13.10;90.00;;;;;;6241290;23;20506;-68
2024/02/24 14:27:25;;;;;;;1.83;1.30;;;13.10;90.00;;;;;;6241639;23;20414;-69
2024/02/24 14:30:11;;;;;;;3.78;1.80;;;13.20;89.70;;;;;;6240981;23;20452;-67
2024/02/24 14:32:57;;;;;;;4.07;1.70;;;13.20;89.40;;;;;;6241365;23;20008;-68
2024/02/24 14:35:43;;;;;;;3.42;1.90;;;13.20;89.10;;;;;;6241763;23;20016;-68
2024/02/24 14:38:29;;;;;;;2.65;1.60;;;13.10;88.90;;;;;;6241240;23;20340;-68
2024/02/24 14:41:15;;;;;;;12.00;2.72;;;13.10;88.90;;;;;;6237745;23;20428;-68
2024/02/24 14:44:02;;;;;;;3.92;2.00;;;13.10;88.80;;;;;;6241428;23;20091;-68
2024/02/24 14:46:56;;;;;;;2.75;1.58;;;13.00;88.60;;;;;;6241592;23;20004;-68
2024/02/24 14:49:42;;;;;;;3.70;1.67;;;13.00;88.50;;;;;;6241219;23;20017;-68
2024/02/24 14:52:27;;;;;;;2.03;1.55;;;13.00;88.40;;;;;;6241680;23;20011;-68
2024/02/24 14:55:14;;;;;;;5.03;3.17;;;12.90;88.20;;;;;;6242173;23;20444;-68
2024/02/24 14:57:59;;;;;;;5.45;3.35;;;12.90;88.10;;;;;;6239792;23;20007;-67